Time;durP1;ratioP1;P1;durP2;ratioP2;P2;SDS_P1;SDS_P2;PMS_P1;PMS_P2;Temp;Humidity;BMP_temperature;BMP_pressure;BME280_temperature;BME280_humidity;BME280_pressure;Samples;Min_cycle;Max_cycle;Signal;HPM_P1;HPM_P2
2024/03/01 00:00:20;;;;;;;39.42;22.10;;;;;;;;;;5050697;28;20041;-58
2024/03/01 00:02:49;;;;;;;34.80;22.27;;;;;;;;;;5050650;28;20346;-58
2024/03/01 00:05:16;;;;;;;39.38;21.92;;;;;;;;;;5050137;28;20041;-57
2024/03/01 00:07:43;;;;;;;43.97;22.90;;;;;;;;;;5050206;28;20081;-58
2024/03/01 00:10:10;;;;;;;39.30;22.40;;;;;;;;;;5050162;28;20091;-59
2024/03/01 00:12:37;;;;;;;45.90;24.05;;;;;;;;;;5050636;28;20481;-58
2024/03/01 00:15:04;;;;;;;51.25;25.02;;;;;;;;;;5050597;28;20488;-57
2024/03/01 00:17:30;;;;;;;41.42;23.33;;;;;;;;;;5050320;28;20118;-56
2024/03/01 00:19:59;;;;;;;40.38;21.23;;;;;;;;;;5050115;28;20076;-59
2024/03/01 00:22:26;;;;;;;41.35;23.17;;;;;;;;;;5050039;28;20076;-58
2024/03/01 00:24:52;;;;;;;38.72;22.73;;;;;;;;;;5049795;28;20049;-56
2024/03/01 00:27:19;;;;;;;42.70;22.92;;;;;;;;;;5049545;28;20092;-57
2024/03/01 00:29:46;;;;;;;43.92;23.85;;;;;;;;;;5049845;28;20049;-55
2024/03/01 00:32:12;;;;;;;40.97;22.35;;;;;;;;;;5049793;28;20132;-55
2024/03/01 00:34:39;;;;;;;38.90;23.05;;;;;;;;;;5049627;28;20092;-56
2024/03/01 00:37:07;;;;;;;38.28;21.95;;;;;;;;;;5049945;28;20477;-56
2024/03/01 00:39:34;;;;;;;35.35;21.38;;;;;;;;;;5049586;28;20139;-54
2024/03/01 00:42:01;;;;;;;33.45;21.17;;;;;;;;;;5041487;28;20555;-57
2024/03/01 00:44:27;;;;;;;35.80;20.20;;;;;;;;;;5049476;28;20075;-57
2024/03/01 00:46:54;;;;;;;30.95;19.33;;;;;;;;;;5058695;28;20128;-61
2024/03/01 00:49:21;;;;;;;35.13;20.33;;;;;;;;;;5050670;28;20068;-65
2024/03/01 00:51:47;;;;;;;32.53;19.92;;;;;;;;;;5049295;28;20705;-56
2024/03/01 00:54:15;;;;;;;34.67;20.67;;;;;;;;;;5048849;28;20626;-55
2024/03/01 00:56:43;;;;;;;34.55;19.17;;;;;;;;;;5049414;28;20169;-57
2024/03/01 00:59:10;;;;;;;37.00;22.63;;;;;;;;;;5049693;28;20053;-58
2024/03/01 01:01:36;;;;;;;33.67;19.98;;;;;;;;;;5049017;28;20092;-57
2024/03/01 01:04:03;;;;;;;29.45;18.70;;;;;;;;;;5055099;28;20125;-62
2024/03/01 01:06:30;;;;;;;30.83;18.52;;;;;;;;;;5057900;28;20041;-56
2024/03/01 01:08:57;;;;;;;30.05;18.17;;;;;;;;;;5055408;28;20535;-55
2024/03/01 01:11:25;;;;;;;28.02;16.63;;;;;;;;;;5053471;28;20158;-57
2024/03/01 01:13:52;;;;;;;24.88;16.38;;;;;;;;;;5054425;28;20044;-56
2024/03/01 01:16:18;;;;;;;28.08;17.67;;;;;;;;;;5045197;28;20072;-56
2024/03/01 01:18:45;;;;;;;28.30;18.42;;;;;;;;;;5050437;28;20527;-57
2024/03/01 01:21:12;;;;;;;27.33;17.33;;;;;;;;;;5048894;28;20137;-56
2024/03/01 01:23:38;;;;;;;27.50;17.23;;;;;;;;;;5048817;28;20417;-57
2024/03/01 01:26:05;;;;;;;27.55;17.25;;;;;;;;;;5048678;28;20049;-57
2024/03/01 01:28:33;;;;;;;27.73;18.60;;;;;;;;;;5049312;28;20330;-57
2024/03/01 01:31:00;;;;;;;26.80;17.48;;;;;;;;;;5047729;28;20068;-58
2024/03/01 01:33:27;;;;;;;24.98;16.88;;;;;;;;;;5054955;28;20041;-58
2024/03/01 01:35:53;;;;;;;24.73;15.35;;;;;;;;;;5056508;28;20053;-58
2024/03/01 01:38:20;;;;;;;27.50;16.98;;;;;;;;;;5054582;28;20405;-58
2024/03/01 01:40:47;;;;;;;24.90;17.33;;;;;;;;;;5058835;28;20094;-56
2024/03/01 01:43:14;;;;;;;24.58;15.40;;;;;;;;;;5054463;28;20091;-58
2024/03/01 01:45:42;;;;;;;24.25;16.63;;;;;;;;;;5054387;28;20082;-56
2024/03/01 01:48:09;;;;;;;26.52;17.45;;;;;;;;;;5053776;28;20052;-57
2024/03/01 01:50:37;;;;;;;25.77;17.17;;;;;;;;;;5058703;28;20124;-56
2024/03/01 01:53:04;;;;;;;25.48;17.08;;;;;;;;;;5050537;28;20053;-58
2024/03/01 01:55:32;;;;;;;26.27;17.00;;;;;;;;;;5055706;28;20106;-58
2024/03/01 01:57:59;;;;;;;32.20;18.42;;;;;;;;;;5056516;28;20154;-57
2024/03/01 02:00:26;;;;;;;27.52;17.45;;;;;;;;;;5053503;28;20492;-58
2024/03/01 02:02:55;;;;;;;34.33;20.63;;;;;;;;;;5060173;28;20044;-57
2024/03/01 02:05:22;;;;;;;28.02;17.55;;;;;;;;;;5056040;28;20416;-58
2024/03/01 02:07:49;;;;;;;30.13;18.98;;;;;;;;;;5060310;28;20099;-58
2024/03/01 02:10:17;;;;;;;31.10;19.33;;;;;;;;;;5051537;28;20037;-57
2024/03/01 02:12:57;;;;;;;32.75;19.15;;;;;;;;;;5052443;28;20393;-58
2024/03/01 02:15:24;;;;;;;31.75;20.00;;;;;;;;;;5052481;28;20049;-56
2024/03/01 02:17:51;;;;;;;37.42;19.10;;;;;;;;;;5051960;28;20509;-56
2024/03/01 02:20:20;;;;;;;35.17;20.95;;;;;;;;;;5052529;28;20427;-57
2024/03/01 02:22:50;;;;;;;33.15;19.38;;;;;;;;;;5052014;28;20045;-57
2024/03/01 02:25:19;;;;;;;33.83;19.30;;;;;;;;;;5051789;28;20373;-57
2024/03/01 02:27:47;;;;;;;33.10;20.60;;;;;;;;;;5051772;28;20466;-53
2024/03/01 02:30:14;;;;;;;34.58;20.67;;;;;;;;;;5051923;28;20256;-54
2024/03/01 02:32:40;;;;;;;30.52;19.33;;;;;;;;;;5052396;28;20464;-54
2024/03/01 02:35:08;;;;;;;31.92;18.75;;;;;;;;;;5052118;28;20095;-55
2024/03/01 02:37:35;;;;;;;30.35;17.95;;;;;;;;;;5052016;28;20076;-58
2024/03/01 02:40:03;;;;;;;29.85;17.50;;;;;;;;;;5044109;28;20098;-58
2024/03/01 02:42:32;;;;;;;28.20;18.63;;;;;;;;;;5052137;28;20041;-58
2024/03/01 02:44:58;;;;;;;27.45;17.80;;;;;;;;;;5051728;28;20049;-57
2024/03/01 02:47:24;;;;;;;25.33;17.30;;;;;;;;;;5051141;28;20110;-57
2024/03/01 02:49:51;;;;;;;30.83;18.67;;;;;;;;;;5051797;28;20470;-56
2024/03/01 02:52:18;;;;;;;30.45;18.73;;;;;;;;;;5050718;28;20138;-57
2024/03/01 02:54:44;;;;;;;29.38;18.60;;;;;;;;;;5050175;28;20136;-58
2024/03/01 02:57:11;;;;;;;38.40;21.33;;;;;;;;;;5049392;28;20063;-56
2024/03/01 02:59:40;;;;;;;33.47;18.73;;;;;;;;;;5056859;28;20084;-57
2024/03/01 03:02:07;;;;;;;35.42;21.23;;;;;;;;;;5058606;28;20056;-56
2024/03/01 03:04:34;;;;;;;35.38;21.45;;;;;;;;;;5057779;28;20516;-55
2024/03/01 03:07:01;;;;;;;34.67;20.70;;;;;;;;;;5059825;28;20408;-57
2024/03/01 03:09:28;;;;;;;39.85;22.52;;;;;;;;;;5056168;28;20068;-56
2024/03/01 03:11:55;;;;;;;35.58;20.88;;;;;;;;;;5056008;28;20460;-56
2024/03/01 03:14:22;;;;;;;35.10;20.38;;;;;;;;;;5054113;28;20476;-53
2024/03/01 03:16:50;;;;;;;37.40;19.88;;;;;;;;;;5059773;28;20050;-55
2024/03/01 03:19:17;;;;;;;37.13;21.05;;;;;;;;;;5059056;28;20118;-55
2024/03/01 03:21:44;;;;;;;38.70;21.73;;;;;;;;;;5061753;28;20533;-56
2024/03/01 03:24:11;;;;;;;33.03;20.27;;;;;;;;;;5051101;28;20085;-56
2024/03/01 03:26:37;;;;;;;37.97;21.08;;;;;;;;;;5051375;28;20072;-56
2024/03/01 03:29:04;;;;;;;37.58;19.83;;;;;;;;;;5051212;28;20152;-56
2024/03/01 03:31:32;;;;;;;35.65;19.45;;;;;;;;;;5054602;28;20045;-57
2024/03/01 03:34:00;;;;;;;34.63;20.23;;;;;;;;;;5052059;28;20080;-56
2024/03/01 03:36:27;;;;;;;36.78;21.42;;;;;;;;;;5050846;28;20128;-56
2024/03/01 03:38:53;;;;;;;40.92;20.13;;;;;;;;;;5058643;28;20116;-57
2024/03/01 03:41:21;;;;;;;35.67;20.58;;;;;;;;;;5052956;28;20705;-57
2024/03/01 03:43:47;;;;;;;31.70;18.95;;;;;;;;;;5054497;28;20259;-57
2024/03/01 03:46:14;;;;;;;32.45;18.98;;;;;;;;;;5058122;28;20540;-58
2024/03/01 03:48:41;;;;;;;33.42;19.27;;;;;;;;;;5052979;28;20453;-57
2024/03/01 03:51:09;;;;;;;36.05;19.40;;;;;;;;;;5055214;28;20075;-56
2024/03/01 03:53:36;;;;;;;33.88;18.95;;;;;;;;;;5058627;28;20087;-57
2024/03/01 03:56:03;;;;;;;31.48;18.95;;;;;;;;;;5050115;28;20088;-57
2024/03/01 03:58:30;;;;;;;26.50;17.27;;;;;;;;;;5046024;28;20140;-57
2024/03/01 04:00:57;;;;;;;28.27;17.67;;;;;;;;;;5053411;28;20135;-53
2024/03/01 04:03:23;;;;;;;30.25;17.90;;;;;;;;;;5053049;28;20476;-55
2024/03/01 04:05:50;;;;;;;30.30;18.05;;;;;;;;;;5054802;28;20527;-55
2024/03/01 04:08:18;;;;;;;31.52;18.20;;;;;;;;;;5053815;28;20520;-55
2024/03/01 04:10:45;;;;;;;30.17;18.27;;;;;;;;;;5048624;28;20084;-56
2024/03/01 04:13:12;;;;;;;30.20;17.55;;;;;;;;;;5050530;28;20119;-55
2024/03/01 04:15:38;;;;;;;29.38;18.10;;;;;;;;;;5054157;28;20137;-56
2024/03/01 04:18:05;;;;;;;29.45;17.20;;;;;;;;;;5051515;28;20513;-55
2024/03/01 04:20:34;;;;;;;29.58;18.23;;;;;;;;;;5050139;28;20132;-56
2024/03/01 04:23:01;;;;;;;32.67;17.75;;;;;;;;;;5049864;28;20127;-57
2024/03/01 04:25:29;;;;;;;31.83;17.75;;;;;;;;;;5049933;28;20055;-57
2024/03/01 04:27:56;;;;;;;33.45;18.77;;;;;;;;;;5050293;28;20134;-58
2024/03/01 04:30:23;;;;;;;32.95;19.13;;;;;;;;;;5046370;28;20069;-57
2024/03/01 04:32:49;;;;;;;31.77;19.65;;;;;;;;;;5042910;28;20605;-57
2024/03/01 04:35:16;;;;;;;34.10;19.83;;;;;;;;;;5047943;28;20040;-56
2024/03/01 04:37:44;;;;;;;38.38;20.45;;;;;;;;;;5044750;28;20128;-56
2024/03/01 04:40:11;;;;;;;34.97;19.00;;;;;;;;;;5048007;28;20262;-58
2024/03/01 04:42:41;;;;;;;44.10;20.20;;;;;;;;;;5043146;28;20049;-57
2024/03/01 04:45:08;;;;;;;32.90;19.37;;;;;;;;;;5045048;28;20045;-59
2024/03/01 04:47:35;;;;;;;34.45;19.80;;;;;;;;;;5049569;28;20080;-58
2024/03/01 04:50:02;;;;;;;35.55;19.08;;;;;;;;;;5041557;28;20128;-57
2024/03/01 04:52:31;;;;;;;29.83;18.48;;;;;;;;;;5048009;28;20049;-58
2024/03/01 04:54:58;;;;;;;34.72;19.13;;;;;;;;;;5049240;28;20565;-57
2024/03/01 04:57:25;;;;;;;34.63;19.52;;;;;;;;;;5047803;28;20088;-54
2024/03/01 04:59:53;;;;;;;40.80;22.58;;;;;;;;;;5047409;28;20125;-56
2024/03/01 05:02:19;;;;;;;32.95;19.30;;;;;;;;;;5047996;28;20099;-55
2024/03/01 05:04:46;;;;;;;40.60;21.20;;;;;;;;;;5049339;28;20151;-56
2024/03/01 05:07:13;;;;;;;36.95;21.20;;;;;;;;;;5049249;28;20048;-56
2024/03/01 05:09:42;;;;;;;37.15;19.35;;;;;;;;;;5044240;28;20119;-55
2024/03/01 05:12:13;;;;;;;37.10;19.15;;;;;;;;;;5042809;28;20140;-56
2024/03/01 05:14:40;;;;;;;33.58;20.70;;;;;;;;;;5046185;28;20049;-53
2024/03/01 05:17:08;;;;;;;37.60;21.00;;;;;;;;;;5048825;28;20049;-55
2024/03/01 05:19:38;;;;;;;40.42;20.15;;;;;;;;;;5049003;28;20091;-57
2024/03/01 05:22:05;;;;;;;39.75;22.02;;;;;;;;;;5049086;28;20500;-56
2024/03/01 05:24:32;;;;;;;42.85;22.60;;;;;;;;;;5048843;28;20520;-58
2024/03/01 05:26:59;;;;;;;43.90;22.02;;;;;;;;;;5049429;28;20652;-56
2024/03/01 05:29:26;;;;;;;47.90;23.88;;;;;;;;;;5049303;28;20053;-55
2024/03/01 05:31:53;;;;;;;44.65;22.77;;;;;;;;;;5046678;28;20073;-56
2024/03/01 05:34:21;;;;;;;45.47;23.75;;;;;;;;;;5051018;28;20083;-57
2024/03/01 05:36:48;;;;;;;48.58;23.63;;;;;;;;;;5049349;28;20098;-56
2024/03/01 05:39:18;;;;;;;40.05;23.30;;;;;;;;;;5049992;28;20127;-55
2024/03/01 05:41:45;;;;;;;41.92;22.65;;;;;;;;;;5048818;28;20048;-54
2024/03/01 05:44:12;;;;;;;40.25;22.88;;;;;;;;;;5048727;28;20140;-57
2024/03/01 05:46:39;;;;;;;44.15;24.02;;;;;;;;;;5047484;28;20044;-56
2024/03/01 05:49:05;;;;;;;43.30;23.55;;;;;;;;;;5048755;28;20087;-56
2024/03/01 05:51:33;;;;;;;48.92;24.27;;;;;;;;;;5048602;28;20052;-56
2024/03/01 05:54:00;;;;;;;47.78;22.85;;;;;;;;;;5043728;28;20136;-57
2024/03/01 05:56:27;;;;;;;42.78;23.25;;;;;;;;;;5048860;28;20076;-57
2024/03/01 05:58:54;;;;;;;44.78;24.85;;;;;;;;;;5048576;28;20489;-57
2024/03/01 06:01:20;;;;;;;39.95;22.15;;;;;;;;;;5045318;28;20131;-58
2024/03/01 06:03:48;;;;;;;44.58;23.75;;;;;;;;;;5048485;28;20120;-58
2024/03/01 06:06:18;;;;;;;36.65;21.02;;;;;;;;;;5048826;28;20049;-57
2024/03/01 06:08:46;;;;;;;40.25;21.17;;;;;;;;;;5042856;28;20057;-58
2024/03/01 06:11:13;;;;;;;39.60;21.80;;;;;;;;;;5052600;28;20480;-56
2024/03/01 06:13:40;;;;;;;39.13;21.98;;;;;;;;;;5055738;28;20128;-55
2024/03/01 06:16:07;;;;;;;39.00;21.88;;;;;;;;;;5052793;28;20482;-56
2024/03/01 06:18:34;;;;;;;37.78;22.00;;;;;;;;;;5050336;28;20183;-57
2024/03/01 06:21:01;;;;;;;39.70;20.73;;;;;;;;;;5049604;28;20128;-56
2024/03/01 06:23:29;;;;;;;37.72;19.92;;;;;;;;;;5054447;28;20536;-57
2024/03/01 06:25:57;;;;;;;38.53;20.20;;;;;;;;;;5047936;28;20045;-57
2024/03/01 06:28:24;;;;;;;39.15;20.13;;;;;;;;;;5048458;28;20067;-58
2024/03/01 06:30:50;;;;;;;36.90;20.17;;;;;;;;;;5048718;28;20045;-58
2024/03/01 06:33:17;;;;;;;34.90;20.80;;;;;;;;;;5044048;28;20076;-56
2024/03/01 06:35:44;;;;;;;37.08;20.55;;;;;;;;;;5048613;28;20493;-57
2024/03/01 06:38:11;;;;;;;36.13;19.83;;;;;;;;;;5048494;28;20103;-54
2024/03/01 06:40:37;;;;;;;37.53;19.38;;;;;;;;;;5048562;28;20130;-54
2024/03/01 06:43:06;;;;;;;36.80;20.40;;;;;;;;;;5047651;28;20492;-57
2024/03/01 06:45:33;;;;;;;35.08;20.10;;;;;;;;;;5049732;28;20063;-57
2024/03/01 06:48:00;;;;;;;33.97;19.88;;;;;;;;;;5050998;28;20119;-55
2024/03/01 06:50:27;;;;;;;37.53;19.50;;;;;;;;;;5048890;28;20044;-55
2024/03/01 06:52:54;;;;;;;36.28;20.13;;;;;;;;;;5052131;28;20680;-54
2024/03/01 06:55:21;;;;;;;35.10;18.95;;;;;;;;;;5051497;28;20128;-57
2024/03/01 06:57:48;;;;;;;37.65;19.23;;;;;;;;;;5044948;28;20059;-57
2024/03/01 07:00:17;;;;;;;36.38;19.27;;;;;;;;;;5045017;28;20128;-57
2024/03/01 07:02:43;;;;;;;36.60;20.02;;;;;;;;;;5051352;28;20088;-57
2024/03/01 07:05:10;;;;;;;33.70;20.00;;;;;;;;;;5049427;28;20069;-58
2024/03/01 07:07:38;;;;;;;34.70;17.92;;;;;;;;;;5051123;28;20124;-56
2024/03/01 07:10:06;;;;;;;39.55;20.27;;;;;;;;;;5054850;28;20048;-56
2024/03/01 07:12:32;;;;;;;38.42;20.35;;;;;;;;;;5053869;28;20140;-56
2024/03/01 07:14:59;;;;;;;33.97;18.35;;;;;;;;;;5056411;28;20091;-56
2024/03/01 07:17:27;;;;;;;33.88;19.05;;;;;;;;;;5055182;28;20488;-57
2024/03/01 07:19:54;;;;;;;33.83;18.77;;;;;;;;;;5056084;28;20128;-56
2024/03/01 07:22:20;;;;;;;30.92;18.38;;;;;;;;;;5054257;28;20049;-57
2024/03/01 07:24:47;;;;;;;35.45;20.08;;;;;;;;;;5051288;28;20128;-56
2024/03/01 07:27:14;;;;;;;33.40;18.70;;;;;;;;;;5055204;28;20136;-55
2024/03/01 07:29:40;;;;;;;36.75;18.48;;;;;;;;;;5058043;28;20126;-56
2024/03/01 07:32:08;;;;;;;36.20;19.92;;;;;;;;;;5051218;28;20076;-56
2024/03/01 07:34:36;;;;;;;33.22;17.77;;;;;;;;;;5054915;28;20055;-55
2024/03/01 07:37:04;;;;;;;33.67;19.27;;;;;;;;;;5053095;28;20124;-56
2024/03/01 07:39:30;;;;;;;36.67;20.70;;;;;;;;;;5052090;28;20485;-57
2024/03/01 07:41:57;;;;;;;30.52;17.30;;;;;;;;;;5051790;28;20127;-55
2024/03/01 07:44:24;;;;;;;37.70;19.88;;;;;;;;;;5047912;28;20539;-56
2024/03/01 07:46:57;;;;;;;36.25;18.88;;;;;;;;;;5051083;28;20076;-57
2024/03/01 07:49:24;;;;;;;35.10;19.33;;;;;;;;;;5051187;28;20511;-58
2024/03/01 07:51:53;;;;;;;31.95;18.25;;;;;;;;;;5050992;28;20040;-58
2024/03/01 07:54:19;;;;;;;36.00;18.88;;;;;;;;;;5050610;28;20055;-57
2024/03/01 07:56:46;;;;;;;38.72;20.23;;;;;;;;;;5050198;28;20703;-56
2024/03/01 07:59:13;;;;;;;36.63;18.70;;;;;;;;;;5051256;28;20441;-58
2024/03/01 08:01:40;;;;;;;33.50;18.00;;;;;;;;;;5050653;28;20052;-56
2024/03/01 08:04:06;;;;;;;33.17;18.27;;;;;;;;;;5050405;28;20497;-57
2024/03/01 08:06:33;;;;;;;35.75;19.52;;;;;;;;;;5050351;28;20128;-57
2024/03/01 08:09:01;;;;;;;34.20;19.38;;;;;;;;;;5050073;28;20094;-56
2024/03/01 08:11:40;;;;;;;35.83;20.27;;;;;;;;;;5046127;28;20059;-55
2024/03/01 08:14:21;;;;;;;38.33;18.70;;;;;;;;;;5044589;28;20468;-55
2024/03/01 08:16:52;;;;;;;40.63;21.58;;;;;;;;;;5051298;28;20056;-58
2024/03/01 08:19:18;;;;;;;;;;;;;;;;;;5050420;28;20063;-57
2024/03/01 08:21:45;;;;;;;34.05;19.63;;;;;;;;;;5048812;28;19955;-54
2024/03/01 08:24:20;;;;;;;41.78;22.67;;;;;;;;;;5051164;28;20095;-57
2024/03/01 08:26:47;;;;;;;34.40;19.70;;;;;;;;;;5046451;28;20094;-58
2024/03/01 08:29:13;;;;;;;34.55;19.02;;;;;;;;;;5055203;28;20128;-57
2024/03/01 08:31:40;;;;;;;32.47;19.50;;;;;;;;;;5050422;28;20183;-66
2024/03/01 08:34:09;;;;;;;38.30;21.17;;;;;;;;;;5052908;28;20136;-62
2024/03/01 08:36:37;;;;;;;39.67;20.42;;;;;;;;;;5050616;28;20548;-57
2024/03/01 08:39:11;;;;;;;37.15;20.05;;;;;;;;;;5058958;28;20140;-64
2024/03/01 08:41:48;;;;;;;41.47;22.17;;;;;;;;;;5056754;28;20135;-60
2024/03/01 08:44:42;;;;;;;44.60;26.98;;;;;;;;;;5049673;28;20492;-68
2024/03/01 08:47:17;;;;;;;43.60;22.30;;;;;;;;;;5049822;28;20048;-59
2024/03/01 08:50:32;;;;;;;35.17;20.15;;;;;;;;;;5050414;28;20080;-66
2024/03/01 08:53:00;;;;;;;38.13;19.85;;;;;;;;;;5048693;28;20419;-54
2024/03/01 08:55:43;;;;;;;37.47;20.77;;;;;;;;;;5050053;28;20060;-58
2024/03/01 08:58:25;;;;;;;36.22;19.65;;;;;;;;;;5054499;28;20120;-57
2024/03/01 09:00:55;;;;;;;43.75;20.73;;;;;;;;;;5052327;28;20136;-53
2024/03/01 09:03:24;;;;;;;40.72;21.25;;;;;;;;;;5045786;28;20419;-56
2024/03/01 09:05:58;;;;;;;39.72;20.60;;;;;;;;;;5049312;28;20053;-55
2024/03/01 09:08:28;;;;;;;40.65;20.55;;;;;;;;;;5048823;28;20123;-56
2024/03/01 09:10:56;;;;;;;39.65;20.50;;;;;;;;;;5051614;28;20044;-58
2024/03/01 09:13:26;;;;;;;37.60;20.83;;;;;;;;;;5050196;28;20099;-58
2024/03/01 09:15:55;;;;;;;40.35;21.38;;;;;;;;;;5052159;28;20077;-53
2024/03/01 09:18:49;;;;;;;40.45;22.50;;;;;;;;;;5049520;28;20407;-56
2024/03/01 09:21:46;;;;;;;39.47;20.48;;;;;;;;;;5052996;28;20064;-57
2024/03/01 09:24:15;;;;;;;43.70;22.35;;;;;;;;;;5044580;28;20084;-56
2024/03/01 09:26:42;;;;;;;36.72;20.52;;;;;;;;;;5050085;28;20124;-56
2024/03/01 09:29:36;;;;;;;37.90;20.20;;;;;;;;;;5051373;28;20586;-55
2024/03/01 09:32:04;;;;;;;41.20;22.60;;;;;;;;;;5043696;28;20128;-54
2024/03/01 09:34:38;;;;;;;42.25;21.40;;;;;;;;;;5052834;28;20041;-57
2024/03/01 09:37:10;;;;;;;40.65;20.58;;;;;;;;;;5044132;28;20516;-56
2024/03/01 09:39:37;;;;;;;39.05;20.27;;;;;;;;;;5054133;28;20415;-57
2024/03/01 09:42:36;;;;;;;37.78;20.33;;;;;;;;;;5055625;28;20132;-58
2024/03/01 09:45:45;;;;;;;42.40;22.83;;;;;;;;;;5042897;28;20091;-58
2024/03/01 09:48:29;;;;;;;39.53;20.33;;;;;;;;;;5040423;28;20122;-56
2024/03/01 09:51:20;;;;;;;37.50;20.52;;;;;;;;;;5048124;28;20081;-56
2024/03/01 09:54:04;;;;;;;40.38;20.20;;;;;;;;;;5049066;28;20127;-58
2024/03/01 09:56:41;;;;;;;38.50;20.70;;;;;;;;;;5049057;28;20055;-57
2024/03/01 09:59:16;;;;;;;38.58;21.50;;;;;;;;;;5049080;28;20053;-55
2024/03/01 10:01:48;;;;;;;39.67;21.65;;;;;;;;;;5049226;28;20080;-56
2024/03/01 10:04:31;;;;;;;42.08;21.13;;;;;;;;;;5048204;28;20077;-58
2024/03/01 10:07:20;;;;;;;39.90;20.52;;;;;;;;;;5051357;28;20094;-57
2024/03/01 10:10:04;;;;;;;43.25;22.27;;;;;;;;;;5054531;28;20095;-54
2024/03/01 10:12:47;;;;;;;36.95;20.58;;;;;;;;;;5045892;28;20075;-57
2024/03/01 10:15:26;;;;;;;44.85;22.70;;;;;;;;;;5046289;28;20488;-56
2024/03/01 10:18:03;;;;;;;42.75;21.90;;;;;;;;;;5052156;28;20045;-56
2024/03/01 10:20:39;;;;;;;39.95;21.52;;;;;;;;;;5051909;28;20542;-58
2024/03/01 10:23:25;;;;;;;38.75;22.73;;;;;;;;;;5048331;28;20043;-56
2024/03/01 10:25:58;;;;;;;40.90;21.27;;;;;;;;;;5052223;28;20049;-58
2024/03/01 10:28:42;;;;;;;42.00;21.88;;;;;;;;;;5052357;28;20084;-57
2024/03/01 10:31:20;;;;;;;41.00;20.70;;;;;;;;;;5054521;28;20081;-58
2024/03/01 10:33:55;;;;;;;41.08;22.55;;;;;;;;;;5052830;28;20049;-58
2024/03/01 10:36:34;;;;;;;42.00;22.73;;;;;;;;;;5054421;28;20500;-57
2024/03/01 10:39:07;;;;;;;41.90;22.48;;;;;;;;;;5052067;28;20076;-57
2024/03/01 10:41:48;;;;;;;36.85;21.25;;;;;;;;;;5052334;28;20770;-58
2024/03/01 10:44:18;;;;;;;41.20;21.85;;;;;;;;;;5051680;28;20053;-58
2024/03/01 10:46:55;;;;;;;42.72;21.83;;;;;;;;;;5052563;28;20080;-58
2024/03/01 10:49:26;;;;;;;41.50;23.00;;;;;;;;;;5052070;28;20490;-56
2024/03/01 10:52:01;;;;;;;39.80;22.77;;;;;;;;;;5057251;28;20765;-58
2024/03/01 10:54:31;;;;;;;41.58;22.92;;;;;;;;;;5052635;28;20041;-58
2024/03/01 10:56:59;;;;;;;38.85;21.15;;;;;;;;;;5053535;28;20076;-56
2024/03/01 10:59:33;;;;;;;39.15;21.00;;;;;;;;;;5054895;28;20519;-57
2024/03/01 11:02:05;;;;;;;38.53;21.40;;;;;;;;;;5056132;28;20483;-56
2024/03/01 11:04:38;;;;;;;40.30;21.58;;;;;;;;;;5050619;28;20127;-55
2024/03/01 11:07:15;;;;;;;41.40;21.70;;;;;;;;;;5055403;28;20053;-57
2024/03/01 11:09:50;;;;;;;41.45;21.38;;;;;;;;;;5052472;28;20068;-52
2024/03/01 11:12:26;;;;;;;38.00;19.40;;;;;;;;;;5050330;28;20472;-53
2024/03/01 11:14:59;;;;;;;38.50;19.75;;;;;;;;;;5051921;28;20081;-57
2024/03/01 11:17:29;;;;;;;36.90;19.63;;;;;;;;;;5048837;28;20076;-54
2024/03/01 11:20:03;;;;;;;35.85;18.88;;;;;;;;;;5050943;28;20142;-55
2024/03/01 11:22:33;;;;;;;33.70;19.02;;;;;;;;;;5046117;28;20415;-57
2024/03/01 11:25:05;;;;;;;36.93;18.63;;;;;;;;;;5053370;28;20065;-57
2024/03/01 11:27:36;;;;;;;35.53;19.75;;;;;;;;;;5056077;28;20041;-56
2024/03/01 11:30:06;;;;;;;35.13;18.55;;;;;;;;;;5053404;28;20048;-57
2024/03/01 11:32:36;;;;;;;37.22;18.77;;;;;;;;;;5050301;28;20041;-55
2024/03/01 11:35:09;;;;;;;33.10;17.33;;;;;;;;;;5056019;28;20040;-55
2024/03/01 11:37:47;;;;;;;33.97;17.67;;;;;;;;;;5050923;28;20080;-56
2024/03/01 11:40:24;;;;;;;34.05;19.55;;;;;;;;;;5051772;28;20045;-58
2024/03/01 11:43:03;;;;;;;32.45;17.50;;;;;;;;;;5052945;28;20183;-57
2024/03/01 11:45:39;;;;;;;32.15;17.13;;;;;;;;;;5048116;28;20118;-56
2024/03/01 11:48:21;;;;;;;33.50;17.50;;;;;;;;;;5051714;28;20088;-57
2024/03/01 11:51:03;;;;;;;29.70;16.65;;;;;;;;;;5055847;28;20045;-55
2024/03/01 11:53:51;;;;;;;30.35;15.80;;;;;;;;;;5055421;28;20091;-56
2024/03/01 11:56:38;;;;;;;27.35;16.05;;;;;;;;;;5044739;28;20300;-56
2024/03/01 11:59:16;;;;;;;30.35;15.73;;;;;;;;;;5044545;28;20083;-54
2024/03/01 12:01:54;;;;;;;25.90;15.10;;;;;;;;;;5055742;28;20041;-56
2024/03/01 12:04:43;;;;;;;29.80;14.85;;;;;;;;;;5045775;28;20080;-56
2024/03/01 12:07:31;;;;;;;27.20;15.18;;;;;;;;;;5048698;28;20076;-55
2024/03/01 12:10:10;;;;;;;25.77;14.98;;;;;;;;;;5051215;28;20124;-56
2024/03/01 12:12:44;;;;;;;26.33;13.85;;;;;;;;;;5054071;28;20076;-56
2024/03/01 12:15:18;;;;;;;25.02;13.68;;;;;;;;;;5048262;28;20040;-53
2024/03/01 12:17:54;;;;;;;22.48;13.13;;;;;;;;;;5051298;28;20087;-57
2024/03/01 12:20:22;;;;;;;24.48;12.73;;;;;;;;;;5051615;28;20074;-57
2024/03/01 12:23:05;;;;;;;24.75;13.40;;;;;;;;;;5058339;28;20049;-55
2024/03/01 12:25:38;;;;;;;23.95;12.48;;;;;;;;;;5052017;28;20041;-56
2024/03/01 12:28:23;;;;;;;21.73;12.50;;;;;;;;;;5043326;28;20052;-51
2024/03/01 12:31:03;;;;;;;24.58;13.18;;;;;;;;;;5050815;28;20515;-56
2024/03/01 12:33:50;;;;;;;22.47;11.30;;;;;;;;;;5050541;28;20114;-56
2024/03/01 12:36:26;;;;;;;21.63;12.50;;;;;;;;;;5043940;28;20302;-52
2024/03/01 12:39:02;;;;;;;22.50;12.02;;;;;;;;;;5050173;28;20495;-53
2024/03/01 12:41:43;;;;;;;22.40;11.60;;;;;;;;;;5050631;28;20519;-54
2024/03/01 12:44:23;;;;;;;21.20;11.70;;;;;;;;;;5043041;28;20369;-56
2024/03/01 12:47:03;;;;;;;23.15;12.63;;;;;;;;;;5056342;28;20090;-55
2024/03/01 12:49:38;;;;;;;23.42;11.95;;;;;;;;;;5046549;28;20044;-55
2024/03/01 12:52:16;;;;;;;24.58;12.68;;;;;;;;;;5053574;28;20094;-55
2024/03/01 12:54:45;;;;;;;21.30;12.32;;;;;;;;;;5052674;28;20037;-56
2024/03/01 12:57:24;;;;;;;21.85;11.38;;;;;;;;;;5050444;28;20041;-56
2024/03/01 13:00:00;;;;;;;19.20;11.68;;;;;;;;;;5053682;28;20170;-56
2024/03/01 13:02:55;;;;;;;21.90;12.00;;;;;;;;;;5055628;28;20128;-56
2024/03/01 13:05:27;;;;;;;22.35;11.95;;;;;;;;;;5053074;28;20063;-57
2024/03/01 13:07:54;;;;;;;21.70;11.63;;;;;;;;;;5057140;28;20053;-56
2024/03/01 13:10:24;;;;;;;22.55;11.73;;;;;;;;;;5049890;28;20133;-55
2024/03/01 13:12:56;;;;;;;20.67;11.02;;;;;;;;;;5049694;28;20420;-55
2024/03/01 13:15:25;;;;;;;20.42;12.13;;;;;;;;;;5049671;28;20091;-56
2024/03/01 13:18:08;;;;;;;21.63;11.68;;;;;;;;;;5049781;28;20052;-53
2024/03/01 13:20:46;;;;;;;19.92;11.88;;;;;;;;;;5050147;28;20041;-55
2024/03/01 13:23:28;;;;;;;20.35;11.63;;;;;;;;;;5050117;28;20072;-54
2024/03/01 13:26:18;;;;;;;20.27;11.68;;;;;;;;;;5050126;28;20048;-56
2024/03/01 13:28:55;;;;;;;18.77;10.80;;;;;;;;;;5050106;28;20080;-55
2024/03/01 13:31:26;;;;;;;22.90;11.85;;;;;;;;;;5050113;28;20488;-54
2024/03/01 13:33:58;;;;;;;20.33;11.63;;;;;;;;;;5050218;28;20048;-53
2024/03/01 13:36:30;;;;;;;19.00;10.63;;;;;;;;;;5049986;28;20127;-52
2024/03/01 13:39:11;;;;;;;23.25;12.25;;;;;;;;;;5049772;28;20049;-55
2024/03/01 13:41:40;;;;;;;19.88;11.55;;;;;;;;;;5049957;28;20210;-56
2024/03/01 13:44:20;;;;;;;17.85;10.88;;;;;;;;;;5041342;28;20071;-62
2024/03/01 13:46:57;;;;;;;20.80;11.35;;;;;;;;;;5048518;28;20056;-60
2024/03/01 13:49:26;;;;;;;22.33;13.25;;;;;;;;;;5053854;28;20041;-65
2024/03/01 13:51:54;;;;;;;31.38;17.50;;;;;;;;;;5050358;28;20049;-55
2024/03/01 13:54:21;;;;;;;26.27;14.38;;;;;;;;;;5054523;28;20639;-57
2024/03/01 13:56:49;;;;;;;27.10;14.45;;;;;;;;;;5056659;28;20087;-58
2024/03/01 13:59:19;;;;;;;22.80;12.30;;;;;;;;;;5056710;28;20045;-54
2024/03/01 14:01:46;;;;;;;26.23;13.20;;;;;;;;;;5059251;28;20044;-57
2024/03/01 14:04:13;;;;;;;20.15;11.27;;;;;;;;;;5055113;28;20091;-56
2024/03/01 14:06:45;;;;;;;22.63;10.90;;;;;;;;;;5052738;28;20041;-58
2024/03/01 14:09:13;;;;;;;18.83;10.07;;;;;;;;;;5057012;28;20453;-56
2024/03/01 14:11:40;;;;;;;21.63;11.05;;;;;;;;;;5057869;28;20504;-57
2024/03/01 14:14:07;;;;;;;19.50;10.27;;;;;;;;;;5054023;28;20039;-52
2024/03/01 14:16:35;;;;;;;19.27;10.50;;;;;;;;;;5053161;28;20132;-58
2024/03/01 14:19:02;;;;;;;24.05;12.50;;;;;;;;;;5054289;28;20087;-55
2024/03/01 14:21:30;;;;;;;18.42;9.95;;;;;;;;;;5055380;28;20045;-52
2024/03/01 14:23:59;;;;;;;18.10;10.63;;;;;;;;;;5052765;28;20099;-58
2024/03/01 14:26:26;;;;;;;17.63;10.20;;;;;;;;;;5058432;28;20459;-56
2024/03/01 14:28:53;;;;;;;17.73;9.98;;;;;;;;;;5059463;28;20120;-56
2024/03/01 14:31:20;;;;;;;19.02;9.82;;;;;;;;;;5056751;28;20045;-56
2024/03/01 14:33:58;;;;;;;18.77;9.95;;;;;;;;;;5059405;28;20073;-55
2024/03/01 14:36:25;;;;;;;18.70;10.60;;;;;;;;;;5052275;28;20085;-54
2024/03/01 14:38:54;;;;;;;16.52;10.00;;;;;;;;;;5052539;28;20083;-54